Sks Mosel — LAXB5 — position and weather

sailwx.info

Track history (hours):
 
Tides and Currents Weather Stations Pressure Air Temp Water Temp Dewpoint Dewpoint Depression Visibility Wind Speed Wind Dir Waves Ship Positions

Sks Mosel

Last reported at 2018-Feb-23 20:20 UTC. Time now 2018-Feb-23 20:35 UTC.
Position N 35°58' W 005°33'.

Length 250 m; draft 13.1 m.

Type: Tanker. MMSI: 258792000.

Date/timePositionNaut miles runAvg speedWind from/ knotsBaromVisibWave heightAir tempDewpointWater temp
2018-Feb-23 20:20N 35°58' W 005°33'411.2
2018-Feb-23 20:00N 35°59' W 005°29'611.2
2018-Feb-23 19:30N 36°01' W 005°22'510.9
2018-Feb-23 19:00N 36°02' W 005°16'  
2018-Feb-20 04:14N 36°01' W 005°10'313.2
2018-Feb-20 04:00N 36°00' W 005°13'612.8
2018-Feb-20 03:30N 35°59' W 005°21'612.1
2018-Feb-20 03:00N 35°57' W 005°28'230 9.9
2018-Feb-19 03:43N 36°58' W 010°04'310.4
2018-Feb-19 03:27N 37°01' W 010°05'510.4
2018-Feb-19 03:00N 37°05' W 010°06'510.2
2018-Feb-19 02:30N 37°10' W 010°08'1210.4
2018-Feb-19 01:23N 37°21' W 010°11'410.5
2018-Feb-19 01:00N 37°25' W 010°12'810.5
2018-Feb-19 00:13N 37°33' W 010°15'510.5
2018-Feb-18 23:47N 37°37' W 010°17'310.5
2018-Feb-18 23:30N 37°40' W 010°17'510.5
2018-Feb-18 23:00N 37°45' W 010°19'610.5
2018-Feb-18 22:29N 37°51' W 010°21'510.6
2018-Feb-18 22:00N 37°56' W 010°22'510.6
2018-Feb-18 21:30N 38°01' W 010°24'510.7
2018-Feb-18 21:00N 38°06' W 010°25'510.7
2018-Feb-18 20:31N 38°11' W 010°27'610.6
2018-Feb-18 19:58N 38°17' W 010°28'510.5
2018-Feb-18 19:30N 38°21' W 010°30'510.5
2018-Feb-18 19:00N 38°27' W 010°31'510.5
2018-Feb-18 18:30N 38°32' W 010°33'  
2018-Feb-15 14:23N 49°49' W 003°21'411.3
2018-Feb-15 14:00N 49°52' W 003°16'611.9
2018-Feb-15 13:28N 49°55' W 003°07'612.2
2018-Feb-15 13:00N 49°58' W 002°60'612.1
2018-Feb-15 12:30N 49°60' W 002°51'611.9
2018-Feb-15 12:00N 50°01' W 002°42'711.3
2018-Feb-15 11:20N 50°03' W 002°31'14 9.7
2018-Feb-15 09:54N 50°07' W 002°10'4 8.0
2018-Feb-15 09:25N 50°08' W 002°04'3 7.2
2018-Feb-15 08:59N 50°09' W 001°59'3 6.8
2018-Feb-15 08:29N 50°10' W 001°54'3 6.7
2018-Feb-15 07:58N 50°11' W 001°49'3 6.4
2018-Feb-15 07:31N 50°12' W 001°45'3 6.5
2018-Feb-15 07:00N 50°13' W 001°40'3 6.9
2018-Feb-15 06:30N 50°14' W 001°35'4 7.5
2018-Feb-15 06:00N 50°15' W 001°29'4 8.4
2018-Feb-15 05:29N 50°16' W 001°22'4 9.4
2018-Feb-15 05:01N 50°17' W 001°16'1511.3
2018-Feb-15 03:42N 50°21' W 000°54'612.4
2018-Feb-15 03:12N 50°23' W 000°44'512.4
2018-Feb-15 02:49N 50°24' W 000°37'512.4
2018-Feb-15 02:24N 50°26' W 000°29'512.1
2018-Feb-15 01:59N 50°27' W 000°22'611.6
2018-Feb-15 01:30N 50°28' W 000°13'611.2
2018-Feb-15 01:00N 50°30' W 000°05'510.7
2018-Feb-15 00:30N 50°31' E 000°04'510.0
2018-Feb-15 00:00N 50°33' E 000°11'5 9.2
2018-Feb-14 23:30N 50°34' E 000°18'4 8.8
2018-Feb-14 23:00N 50°35' E 000°25'4 8.4
2018-Feb-14 22:30N 50°35' E 000°31'4 7.4
2018-Feb-14 21:59N 50°37' E 000°37'3 6.9
2018-Feb-14 21:30N 50°39' E 000°41'3 6.7
2018-Feb-14 21:00N 50°41' E 000°45'3 6.7
2018-Feb-14 20:30N 50°43' E 000°49'4 7.4
2018-Feb-14 20:00N 50°46' E 000°53'4 8.5
2018-Feb-14 19:30N 50°49' E 000°58'5 9.2
2018-Feb-14 18:56N 50°52' E 001°05'4 9.6
2018-Feb-14 18:30N 50°54' E 001°10'510.4
2018-Feb-14 18:00N 50°58' E 001°16'510.6
2018-Feb-14 17:30N 51°01' E 001°22'510.4
2018-Feb-14 17:01N 51°05' E 001°29'510.1
2018-Feb-14 16:30N 51°08' E 001°35'5 9.6
2018-Feb-14 16:00N 51°11' E 001°41'5 9.6
2018-Feb-14 15:30N 51°14' E 001°47'4 9.0
2018-Feb-14 15:01N 51°18' E 001°50'4 8.7
2018-Feb-14 14:31N 51°21' E 001°54'4 8.3
2018-Feb-14 14:00N 51°25' E 001°59'5 9.4
2018-Feb-14 13:30N 51°23' E 002°06'511.0
2018-Feb-14 13:00N 51°21' E 002°14'4 8.9
2018-Feb-14 12:30N 51°21' E 002°21'5 9.3
2018-Feb-14 12:00N 51°23' E 002°28'5 9.7
2018-Feb-14 11:30N 51°23' E 002°36'510.1
2018-Feb-14 11:00N 51°22' E 002°44'611.9
2018-Feb-14 10:30N 51°23' E 002°53'613.2
2018-Feb-14 10:01N 51°24' E 003°03'713.4
2018-Feb-14 09:31N 51°25' E 003°14'714.0
2018-Feb-14 09:00N 51°25' E 003°25'612.0
2018-Feb-14 08:30N 51°26' E 003°35'510.1
2018-Feb-14 08:00N 51°25' E 003°43'611.7
2018-Feb-14 07:30N 51°21' E 003°50'612.6
2018-Feb-14 07:01N 51°25' E 003°58'4 8.6
2018-Feb-14 06:30N 51°22' E 004°03'611.8
2018-Feb-14 06:00N 51°23' E 004°13'3 6.9
2018-Feb-14 05:31N 51°21' E 004°17'0 0.0
2018-Feb-14 05:00N 51°21' E 004°17'0 0.4
2018-Feb-14 04:30N 51°21' E 004°17'1 2.6
2018-Feb-14 04:00N 51°20' E 004°19'1 0.2
2018-Feb-14 01:49N 51°19' E 004°19'  
Track history (hours):
 
Tides and Currents Weather Stations Pressure Air Temp Water Temp Dewpoint Dewpoint Depression Visibility Wind Speed Wind Dir Waves Ship Positions

Sks Mosel

Last reported at 2018-Feb-23 20:20 UTC. Time now 2018-Feb-23 20:35 UTC.
Position N 35°58' W 005°33'.

Length 250 m; draft 13.1 m.

Type: Tanker. MMSI: 258792000.

Date/timePositionNaut miles runAvg speedWind from/ knotsBaromVisibWave heightAir tempDewpointWater temp
2018-Feb-23 20:20N 35°58' W 005°33'411.2
2018-Feb-23 20:00N 35°59' W 005°29'611.2
2018-Feb-23 19:30N 36°01' W 005°22'510.9
2018-Feb-23 19:00N 36°02' W 005°16'  
2018-Feb-20 04:14N 36°01' W 005°10'313.2
2018-Feb-20 04:00N 36°00' W 005°13'612.8
2018-Feb-20 03:30N 35°59' W 005°21'612.1
2018-Feb-20 03:00N 35°57' W 005°28'230 9.9
2018-Feb-19 03:43N 36°58' W 010°04'310.4
2018-Feb-19 03:27N 37°01' W 010°05'510.4
2018-Feb-19 03:00N 37°05' W 010°06'510.2
2018-Feb-19 02:30N 37°10' W 010°08'1210.4
2018-Feb-19 01:23N 37°21' W 010°11'410.5
2018-Feb-19 01:00N 37°25' W 010°12'810.5
2018-Feb-19 00:13N 37°33' W 010°15'510.5
2018-Feb-18 23:47N 37°37' W 010°17'310.5
2018-Feb-18 23:30N 37°40' W 010°17'510.5
2018-Feb-18 23:00N 37°45' W 010°19'610.5
2018-Feb-18 22:29N 37°51' W 010°21'510.6
2018-Feb-18 22:00N 37°56' W 010°22'510.6
2018-Feb-18 21:30N 38°01' W 010°24'510.7
2018-Feb-18 21:00N 38°06' W 010°25'510.7
2018-Feb-18 20:31N 38°11' W 010°27'610.6
2018-Feb-18 19:58N 38°17' W 010°28'510.5
2018-Feb-18 19:30N 38°21' W 010°30'510.5
2018-Feb-18 19:00N 38°27' W 010°31'510.5
2018-Feb-18 18:30N 38°32' W 010°33'  
2018-Feb-15 14:23N 49°49' W 003°21'411.3
2018-Feb-15 14:00N 49°52' W 003°16'611.9
2018-Feb-15 13:28N 49°55' W 003°07'612.2
2018-Feb-15 13:00N 49°58' W 002°60'612.1
2018-Feb-15 12:30N 49°60' W 002°51'611.9
2018-Feb-15 12:00N 50°01' W 002°42'711.3
2018-Feb-15 11:20N 50°03' W 002°31'14 9.7
2018-Feb-15 09:54N 50°07' W 002°10'4 8.0
2018-Feb-15 09:25N 50°08' W 002°04'3 7.2
2018-Feb-15 08:59N 50°09' W 001°59'3 6.8
2018-Feb-15 08:29N 50°10' W 001°54'3 6.7
2018-Feb-15 07:58N 50°11' W 001°49'3 6.4
2018-Feb-15 07:31N 50°12' W 001°45'3 6.5
2018-Feb-15 07:00N 50°13' W 001°40'3 6.9
2018-Feb-15 06:30N 50°14' W 001°35'4 7.5
2018-Feb-15 06:00N 50°15' W 001°29'4 8.4
2018-Feb-15 05:29N 50°16' W 001°22'4 9.4
2018-Feb-15 05:01N 50°17' W 001°16'1511.3
2018-Feb-15 03:42N 50°21' W 000°54'612.4
2018-Feb-15 03:12N 50°23' W 000°44'512.4
2018-Feb-15 02:49N 50°24' W 000°37'512.4
2018-Feb-15 02:24N 50°26' W 000°29'512.1
2018-Feb-15 01:59N 50°27' W 000°22'611.6
2018-Feb-15 01:30N 50°28' W 000°13'611.2
2018-Feb-15 01:00N 50°30' W 000°05'510.7
2018-Feb-15 00:30N 50°31' E 000°04'510.0
2018-Feb-15 00:00N 50°33' E 000°11'5 9.2
2018-Feb-14 23:30N 50°34' E 000°18'4 8.8
2018-Feb-14 23:00N 50°35' E 000°25'4 8.4
2018-Feb-14 22:30N 50°35' E 000°31'4 7.4
2018-Feb-14 21:59N 50°37' E 000°37'3 6.9
2018-Feb-14 21:30N 50°39' E 000°41'3 6.7
2018-Feb-14 21:00N 50°41' E 000°45'3 6.7
2018-Feb-14 20:30N 50°43' E 000°49'4 7.4
2018-Feb-14 20:00N 50°46' E 000°53'4 8.5
2018-Feb-14 19:30N 50°49' E 000°58'5 9.2
2018-Feb-14 18:56N 50°52' E 001°05'4 9.6
2018-Feb-14 18:30N 50°54' E 001°10'510.4
2018-Feb-14 18:00N 50°58' E 001°16'510.6
2018-Feb-14 17:30N 51°01' E 001°22'510.4
2018-Feb-14 17:01N 51°05' E 001°29'510.1
2018-Feb-14 16:30N 51°08' E 001°35'5 9.6
2018-Feb-14 16:00N 51°11' E 001°41'5 9.6
2018-Feb-14 15:30N 51°14' E 001°47'4 9.0
2018-Feb-14 15:01N 51°18' E 001°50'4 8.7
2018-Feb-14 14:31N 51°21' E 001°54'4 8.3
2018-Feb-14 14:00N 51°25' E 001°59'5 9.4
2018-Feb-14 13:30N 51°23' E 002°06'511.0
2018-Feb-14 13:00N 51°21' E 002°14'4 8.9
2018-Feb-14 12:30N 51°21' E 002°21'5 9.3
2018-Feb-14 12:00N 51°23' E 002°28'5 9.7
2018-Feb-14 11:30N 51°23' E 002°36'510.1
2018-Feb-14 11:00N 51°22' E 002°44'611.9
2018-Feb-14 10:30N 51°23' E 002°53'613.2
2018-Feb-14 10:01N 51°24' E 003°03'713.4
2018-Feb-14 09:31N 51°25' E 003°14'714.0
2018-Feb-14 09:00N 51°25' E 003°25'612.0
2018-Feb-14 08:30N 51°26' E 003°35'510.1
2018-Feb-14 08:00N 51°25' E 003°43'611.7
2018-Feb-14 07:30N 51°21' E 003°50'612.6
2018-Feb-14 07:01N 51°25' E 003°58'4 8.6
2018-Feb-14 06:30N 51°22' E 004°03'611.8
2018-Feb-14 06:00N 51°23' E 004°13'3 6.9
2018-Feb-14 05:31N 51°21' E 004°17'0 0.0
2018-Feb-14 05:00N 51°21' E 004°17'0 0.4
2018-Feb-14 04:30N 51°21' E 004°17'1 2.6
2018-Feb-14 04:00N 51°20' E 004°19'1 0.2
2018-Feb-14 01:49N 51°19' E 004°19'  

Dump ship's entire track history